sensor_id;sensor_type;location;lat;lon;timestamp;P1;durP1;ratioP1;P2;durP2;ratioP2
40367;SDS011;26075;43.320;21.920;2022-10-15T00:04:33;15.07;;;9.23;;
40367;SDS011;26075;43.320;21.920;2022-10-15T00:09:34;19.05;;;9.07;;
40367;SDS011;26075;43.320;21.920;2022-10-15T00:14:35;13.48;;;7.55;;
40367;SDS011;26075;43.320;21.920;2022-10-15T00:19:36;16.95;;;7.40;;
40367;SDS011;26075;43.320;21.920;2022-10-15T00:24:37;13.02;;;8.23;;
40367;SDS011;26075;43.320;21.920;2022-10-15T00:29:38;13.90;;;7.88;;
40367;SDS011;26075;43.320;21.920;2022-10-15T00:34:39;11.93;;;6.50;;
40367;SDS011;26075;43.320;21.920;2022-10-15T00:39:41;9.07;;;5.05;;
40367;SDS011;26075;43.320;21.920;2022-10-15T00:49:54;15.13;;;5.32;;
40367;SDS011;26075;43.320;21.920;2022-10-15T00:55:02;10.57;;;5.60;;
40367;SDS011;26075;43.320;21.920;2022-10-15T01:00:08;11.25;;;5.47;;
40367;SDS011;26075;43.320;21.920;2022-10-15T01:05:10;8.85;;;5.18;;
40367;SDS011;26075;43.320;21.920;2022-10-15T01:10:11;10.25;;;5.47;;
40367;SDS011;26075;43.320;21.920;2022-10-15T01:15:31;12.20;;;7.55;;
40367;SDS011;26075;43.320;21.920;2022-10-15T01:31:01;11.30;;;6.25;;
40367;SDS011;26075;43.320;21.920;2022-10-15T01:41:09;8.18;;;5.20;;
40367;SDS011;26075;43.320;21.920;2022-10-15T01:46:39;7.55;;;5.25;;
40367;SDS011;26075;43.320;21.920;2022-10-15T01:51:46;6.78;;;4.80;;
40367;SDS011;26075;43.320;21.920;2022-10-15T01:56:47;9.55;;;5.63;;
40367;SDS011;26075;43.320;21.920;2022-10-15T02:01:50;9.80;;;5.85;;
40367;SDS011;26075;43.320;21.920;2022-10-15T02:07:01;12.63;;;6.97;;
40367;SDS011;26075;43.320;21.920;2022-10-15T02:17:45;13.95;;;7.90;;
40367;SDS011;26075;43.320;21.920;2022-10-15T02:27:55;13.38;;;7.80;;
40367;SDS011;26075;43.320;21.920;2022-10-15T02:32:58;15.35;;;8.32;;
40367;SDS011;26075;43.320;21.920;2022-10-15T02:38:01;12.95;;;7.00;;
40367;SDS011;26075;43.320;21.920;2022-10-15T02:43:07;12.82;;;7.40;;
40367;SDS011;26075;43.320;21.920;2022-10-15T02:48:09;13.17;;;6.57;;
40367;SDS011;26075;43.320;21.920;2022-10-15T02:53:10;13.15;;;6.32;;
40367;SDS011;26075;43.320;21.920;2022-10-15T02:58:11;18.52;;;7.30;;
40367;SDS011;26075;43.320;21.920;2022-10-15T03:03:12;11.68;;;6.78;;
40367;SDS011;26075;43.320;21.920;2022-10-15T03:08:13;11.73;;;6.30;;
40367;SDS011;26075;43.320;21.920;2022-10-15T03:13:14;13.27;;;8.70;;
40367;SDS011;26075;43.320;21.920;2022-10-15T03:18:15;17.25;;;7.53;;
40367;SDS011;26075;43.320;21.920;2022-10-15T03:23:16;16.13;;;6.45;;
40367;SDS011;26075;43.320;21.920;2022-10-15T03:28:17;13.88;;;6.53;;
40367;SDS011;26075;43.320;21.920;2022-10-15T03:33:18;11.30;;;6.78;;
40367;SDS011;26075;43.320;21.920;2022-10-15T03:38:19;17.67;;;6.68;;
40367;SDS011;26075;43.320;21.920;2022-10-15T03:43:22;9.98;;;6.13;;
40367;SDS011;26075;43.320;21.920;2022-10-15T03:48:24;11.18;;;7.05;;
40367;SDS011;26075;43.320;21.920;2022-10-15T03:53:25;12.93;;;6.53;;
40367;SDS011;26075;43.320;21.920;2022-10-15T03:58:26;10.73;;;6.22;;
40367;SDS011;26075;43.320;21.920;2022-10-15T04:03:27;15.05;;;6.43;;
40367;SDS011;26075;43.320;21.920;2022-10-15T04:08:28;11.93;;;5.93;;
40367;SDS011;26075;43.320;21.920;2022-10-15T04:13:29;11.23;;;5.82;;
40367;SDS011;26075;43.320;21.920;2022-10-15T04:18:30;10.73;;;5.93;;
40367;SDS011;26075;43.320;21.920;2022-10-15T04:23:31;13.15;;;6.13;;
40367;SDS011;26075;43.320;21.920;2022-10-15T04:28:32;18.33;;;6.78;;
40367;SDS011;26075;43.320;21.920;2022-10-15T04:33:34;21.83;;;8.65;;
40367;SDS011;26075;43.320;21.920;2022-10-15T04:38:35;13.77;;;6.85;;
40367;SDS011;26075;43.320;21.920;2022-10-15T04:43:36;19.42;;;7.43;;
40367;SDS011;26075;43.320;21.920;2022-10-15T04:48:37;19.52;;;7.93;;
40367;SDS011;26075;43.320;21.920;2022-10-15T04:53:39;21.83;;;8.07;;
40367;SDS011;26075;43.320;21.920;2022-10-15T04:58:40;24.48;;;8.82;;
40367;SDS011;26075;43.320;21.920;2022-10-15T05:03:42;19.67;;;7.95;;
40367;SDS011;26075;43.320;21.920;2022-10-15T05:08:44;15.80;;;7.90;;
40367;SDS011;26075;43.320;21.920;2022-10-15T05:13:45;18.65;;;10.68;;
40367;SDS011;26075;43.320;21.920;2022-10-15T05:18:48;23.05;;;11.05;;
40367;SDS011;26075;43.320;21.920;2022-10-15T05:23:49;30.10;;;13.15;;
40367;SDS011;26075;43.320;21.920;2022-10-15T05:28:51;27.90;;;13.23;;
40367;SDS011;26075;43.320;21.920;2022-10-15T05:33:52;28.30;;;14.75;;
40367;SDS011;26075;43.320;21.920;2022-10-15T05:38:54;21.25;;;13.20;;
40367;SDS011;26075;43.320;21.920;2022-10-15T05:43:56;21.60;;;13.30;;
40367;SDS011;26075;43.320;21.920;2022-10-15T05:48:57;49.83;;;15.52;;
40367;SDS011;26075;43.320;21.920;2022-10-15T05:53:58;32.47;;;14.93;;
40367;SDS011;26075;43.320;21.920;2022-10-15T05:58:59;26.10;;;14.10;;
40367;SDS011;26075;43.320;21.920;2022-10-15T06:04:02;25.98;;;13.63;;
40367;SDS011;26075;43.320;21.920;2022-10-15T06:09:03;29.85;;;14.00;;
40367;SDS011;26075;43.320;21.920;2022-10-15T06:14:04;20.65;;;12.85;;
40367;SDS011;26075;43.320;21.920;2022-10-15T06:19:05;21.13;;;12.55;;
40367;SDS011;26075;43.320;21.920;2022-10-15T06:24:06;24.75;;;12.57;;
40367;SDS011;26075;43.320;21.920;2022-10-15T06:29:08;18.05;;;11.38;;
40367;SDS011;26075;43.320;21.920;2022-10-15T06:34:09;28.17;;;11.40;;
40367;SDS011;26075;43.320;21.920;2022-10-15T06:39:10;20.67;;;11.73;;
40367;SDS011;26075;43.320;21.920;2022-10-15T06:44:11;33.40;;;13.70;;
40367;SDS011;26075;43.320;21.920;2022-10-15T06:49:12;22.48;;;13.82;;
40367;SDS011;26075;43.320;21.920;2022-10-15T06:54:13;21.50;;;15.60;;
40367;SDS011;26075;43.320;21.920;2022-10-15T06:59:15;24.23;;;16.65;;
40367;SDS011;26075;43.320;21.920;2022-10-15T07:04:16;33.55;;;17.55;;
40367;SDS011;26075;43.320;21.920;2022-10-15T07:09:17;24.95;;;15.68;;
40367;SDS011;26075;43.320;21.920;2022-10-15T07:14:19;33.30;;;15.93;;
40367;SDS011;26075;43.320;21.920;2022-10-15T07:19:20;24.10;;;15.52;;
40367;SDS011;26075;43.320;21.920;2022-10-15T07:24:21;29.60;;;17.40;;
40367;SDS011;26075;43.320;21.920;2022-10-15T07:29:22;26.30;;;14.95;;
40367;SDS011;26075;43.320;21.920;2022-10-15T07:34:23;22.65;;;13.30;;
40367;SDS011;26075;43.320;21.920;2022-10-15T07:39:24;21.75;;;12.52;;
40367;SDS011;26075;43.320;21.920;2022-10-15T07:44:26;22.35;;;12.90;;
40367;SDS011;26075;43.320;21.920;2022-10-15T07:49:28;19.95;;;12.18;;
40367;SDS011;26075;43.320;21.920;2022-10-15T07:54:38;18.67;;;12.85;;
40367;SDS011;26075;43.320;21.920;2022-10-15T07:59:39;23.20;;;12.07;;
40367;SDS011;26075;43.320;21.920;2022-10-15T08:04:40;15.88;;;11.82;;
40367;SDS011;26075;43.320;21.920;2022-10-15T08:09:41;17.13;;;11.13;;
40367;SDS011;26075;43.320;21.920;2022-10-15T08:14:42;20.08;;;11.02;;
40367;SDS011;26075;43.320;21.920;2022-10-15T08:19:43;19.38;;;11.18;;
40367;SDS011;26075;43.320;21.920;2022-10-15T08:24:44;17.30;;;10.98;;
40367;SDS011;26075;43.320;21.920;2022-10-15T08:29:45;16.70;;;10.45;;
40367;SDS011;26075;43.320;21.920;2022-10-15T08:34:46;35.70;;;11.32;;
40367;SDS011;26075;43.320;21.920;2022-10-15T08:39:47;15.50;;;10.45;;
40367;SDS011;26075;43.320;21.920;2022-10-15T08:45:01;22.75;;;10.85;;
40367;SDS011;26075;43.320;21.920;2022-10-15T08:55:36;28.15;;;11.73;;
40367;SDS011;26075;43.320;21.920;2022-10-15T09:00:42;16.23;;;9.52;;
40367;SDS011;26075;43.320;21.920;2022-10-15T09:11:22;19.92;;;9.13;;
40367;SDS011;26075;43.320;21.920;2022-10-15T09:16:39;18.23;;;9.82;;
40367;SDS011;26075;43.320;21.920;2022-10-15T09:21:42;15.25;;;9.02;;
40367;SDS011;26075;43.320;21.920;2022-10-15T09:26:48;19.55;;;8.75;;
40367;SDS011;26075;43.320;21.920;2022-10-15T09:42:27;18.27;;;9.07;;
40367;SDS011;26075;43.320;21.920;2022-10-15T09:47:34;12.60;;;8.18;;
40367;SDS011;26075;43.320;21.920;2022-10-15T09:57:39;16.35;;;9.07;;
40367;SDS011;26075;43.320;21.920;2022-10-15T10:02:41;19.27;;;9.68;;
40367;SDS011;26075;43.320;21.920;2022-10-15T10:07:42;23.27;;;10.77;;
40367;SDS011;26075;43.320;21.920;2022-10-15T10:12:43;30.45;;;11.77;;
40367;SDS011;26075;43.320;21.920;2022-10-15T10:17:50;24.52;;;9.65;;
40367;SDS011;26075;43.320;21.920;2022-10-15T10:22:53;25.48;;;10.23;;
40367;SDS011;26075;43.320;21.920;2022-10-15T10:28:11;21.42;;;9.52;;
40367;SDS011;26075;43.320;21.920;2022-10-15T10:33:14;21.00;;;8.90;;
40367;SDS011;26075;43.320;21.920;2022-10-15T10:38:20;26.48;;;9.45;;
40367;SDS011;26075;43.320;21.920;2022-10-15T10:43:26;16.40;;;8.65;;
40367;SDS011;26075;43.320;21.920;2022-10-15T10:48:38;10.95;;;6.45;;
40367;SDS011;26075;43.320;21.920;2022-10-15T11:04:26;16.77;;;6.35;;
40367;SDS011;26075;43.320;21.920;2022-10-15T11:19:58;8.65;;;4.40;;
40367;SDS011;26075;43.320;21.920;2022-10-15T11:35:38;10.20;;;5.15;;
40367;SDS011;26075;43.320;21.920;2022-10-15T11:45:52;9.75;;;5.40;;
40367;SDS011;26075;43.320;21.920;2022-10-15T11:51:01;10.90;;;6.22;;
40367;SDS011;26075;43.320;21.920;2022-10-15T12:06:47;10.85;;;5.35;;
40367;SDS011;26075;43.320;21.920;2022-10-15T12:11:58;8.93;;;4.78;;
40367;SDS011;26075;43.320;21.920;2022-10-15T12:22:33;12.30;;;4.45;;
40367;SDS011;26075;43.320;21.920;2022-10-15T12:27:36;9.65;;;4.80;;
40367;SDS011;26075;43.320;21.920;2022-10-15T12:32:39;11.55;;;4.70;;
40367;SDS011;26075;43.320;21.920;2022-10-15T12:37:44;12.15;;;5.95;;
40367;SDS011;26075;43.320;21.920;2022-10-15T12:42:53;11.38;;;5.28;;
40367;SDS011;26075;43.320;21.920;2022-10-15T12:48:12;11.48;;;5.25;;
40367;SDS011;26075;43.320;21.920;2022-10-15T13:03:33;14.02;;;5.45;;
40367;SDS011;26075;43.320;21.920;2022-10-15T13:08:35;12.02;;;5.15;;
40367;SDS011;26075;43.320;21.920;2022-10-15T13:13:36;9.15;;;4.90;;
40367;SDS011;26075;43.320;21.920;2022-10-15T13:18:40;13.50;;;4.88;;
40367;SDS011;26075;43.320;21.920;2022-10-15T13:23:48;9.45;;;4.22;;
40367;SDS011;26075;43.320;21.920;2022-10-15T13:28:50;13.13;;;5.30;;
40367;SDS011;26075;43.320;21.920;2022-10-15T13:33:53;9.50;;;5.05;;
40367;SDS011;26075;43.320;21.920;2022-10-15T13:38:59;8.00;;;3.80;;
40367;SDS011;26075;43.320;21.920;2022-10-15T13:44:03;10.88;;;4.95;;
40367;SDS011;26075;43.320;21.920;2022-10-15T13:49:10;9.35;;;4.05;;
40367;SDS011;26075;43.320;21.920;2022-10-15T13:54:16;10.55;;;4.68;;
40367;SDS011;26075;43.320;21.920;2022-10-15T13:59:20;9.38;;;4.00;;
40367;SDS011;26075;43.320;21.920;2022-10-15T14:04:22;7.18;;;4.00;;
40367;SDS011;26075;43.320;21.920;2022-10-15T14:09:24;6.40;;;3.88;;
40367;SDS011;26075;43.320;21.920;2022-10-15T14:14:35;6.63;;;3.90;;
40367;SDS011;26075;43.320;21.920;2022-10-15T14:19:40;7.38;;;3.92;;
40367;SDS011;26075;43.320;21.920;2022-10-15T14:24:47;7.28;;;4.45;;
40367;SDS011;26075;43.320;21.920;2022-10-15T14:29:56;9.13;;;4.78;;
40367;SDS011;26075;43.320;21.920;2022-10-15T14:34:59;11.48;;;5.32;;
40367;SDS011;26075;43.320;21.920;2022-10-15T14:45:11;10.60;;;5.68;;
40367;SDS011;26075;43.320;21.920;2022-10-15T14:50:12;15.67;;;5.53;;
40367;SDS011;26075;43.320;21.920;2022-10-15T15:00:24;10.70;;;5.90;;
40367;SDS011;26075;43.320;21.920;2022-10-15T15:05:26;10.18;;;6.03;;
40367;SDS011;26075;43.320;21.920;2022-10-15T15:10:27;10.57;;;5.55;;
40367;SDS011;26075;43.320;21.920;2022-10-15T15:15:28;10.38;;;5.85;;
40367;SDS011;26075;43.320;21.920;2022-10-15T15:20:28;11.18;;;5.60;;
40367;SDS011;26075;43.320;21.920;2022-10-15T15:25:30;11.70;;;5.68;;
40367;SDS011;26075;43.320;21.920;2022-10-15T15:30:33;10.30;;;4.22;;
40367;SDS011;26075;43.320;21.920;2022-10-15T15:40:49;9.18;;;6.22;;
40367;SDS011;26075;43.320;21.920;2022-10-15T15:45:50;10.48;;;5.70;;
40367;SDS011;26075;43.320;21.920;2022-10-15T15:50:52;8.63;;;5.20;;
40367;SDS011;26075;43.320;21.920;2022-10-15T15:55:53;10.55;;;6.03;;
40367;SDS011;26075;43.320;21.920;2022-10-15T16:00:55;11.57;;;6.60;;
40367;SDS011;26075;43.320;21.920;2022-10-15T16:05:56;11.52;;;5.90;;
40367;SDS011;26075;43.320;21.920;2022-10-15T16:11:03;12.35;;;6.65;;
40367;SDS011;26075;43.320;21.920;2022-10-15T16:20:59;15.93;;;6.68;;
40367;SDS011;26075;43.320;21.920;2022-10-15T16:26:00;11.70;;;5.65;;
40367;SDS011;26075;43.320;21.920;2022-10-15T16:36:14;13.73;;;5.93;;
40367;SDS011;26075;43.320;21.920;2022-10-15T16:41:17;12.35;;;5.88;;
40367;SDS011;26075;43.320;21.920;2022-10-15T16:46:18;12.93;;;6.05;;
40367;SDS011;26075;43.320;21.920;2022-10-15T16:51:20;11.02;;;6.85;;
40367;SDS011;26075;43.320;21.920;2022-10-15T16:56:22;10.70;;;6.72;;
40367;SDS011;26075;43.320;21.920;2022-10-15T17:01:28;17.13;;;8.18;;
40367;SDS011;26075;43.320;21.920;2022-10-15T17:06:29;12.65;;;7.07;;
40367;SDS011;26075;43.320;21.920;2022-10-15T17:11:37;12.98;;;7.18;;
40367;SDS011;26075;43.320;21.920;2022-10-15T17:16:40;11.85;;;6.97;;
40367;SDS011;26075;43.320;21.920;2022-10-15T17:21:43;11.55;;;6.20;;
40367;SDS011;26075;43.320;21.920;2022-10-15T17:26:44;14.57;;;7.60;;
40367;SDS011;26075;43.320;21.920;2022-10-15T17:31:46;13.00;;;6.75;;
40367;SDS011;26075;43.320;21.920;2022-10-15T17:36:47;13.18;;;7.80;;
40367;SDS011;26075;43.320;21.920;2022-10-15T17:41:49;14.25;;;7.30;;
40367;SDS011;26075;43.320;21.920;2022-10-15T17:46:53;12.95;;;6.78;;
40367;SDS011;26075;43.320;21.920;2022-10-15T17:51:54;13.45;;;6.70;;
40367;SDS011;26075;43.320;21.920;2022-10-15T17:56:55;11.07;;;6.72;;
40367;SDS011;26075;43.320;21.920;2022-10-15T18:01:56;12.02;;;5.53;;
40367;SDS011;26075;43.320;21.920;2022-10-15T18:06:59;17.42;;;6.43;;
40367;SDS011;26075;43.320;21.920;2022-10-15T18:12:00;13.35;;;8.43;;
40367;SDS011;26075;43.320;21.920;2022-10-15T18:17:01;12.77;;;6.70;;
40367;SDS011;26075;43.320;21.920;2022-10-15T18:22:03;11.10;;;6.53;;
40367;SDS011;26075;43.320;21.920;2022-10-15T18:27:04;11.80;;;7.22;;
40367;SDS011;26075;43.320;21.920;2022-10-15T18:32:05;15.60;;;8.18;;
40367;SDS011;26075;43.320;21.920;2022-10-15T18:37:06;15.38;;;8.32;;
40367;SDS011;26075;43.320;21.920;2022-10-15T18:42:07;16.83;;;8.43;;
40367;SDS011;26075;43.320;21.920;2022-10-15T18:47:08;17.90;;;10.10;;
40367;SDS011;26075;43.320;21.920;2022-10-15T18:52:10;13.32;;;9.38;;
40367;SDS011;26075;43.320;21.920;2022-10-15T18:57:12;18.55;;;11.63;;
40367;SDS011;26075;43.320;21.920;2022-10-15T19:02:13;22.23;;;13.23;;
40367;SDS011;26075;43.320;21.920;2022-10-15T19:07:14;18.95;;;11.68;;
40367;SDS011;26075;43.320;21.920;2022-10-15T19:12:15;17.17;;;11.02;;
40367;SDS011;26075;43.320;21.920;2022-10-15T19:17:17;18.90;;;10.15;;
40367;SDS011;26075;43.320;21.920;2022-10-15T19:22:18;20.55;;;9.05;;
40367;SDS011;26075;43.320;21.920;2022-10-15T19:27:19;14.73;;;9.40;;
40367;SDS011;26075;43.320;21.920;2022-10-15T19:32:20;19.08;;;9.90;;
40367;SDS011;26075;43.320;21.920;2022-10-15T19:37:21;16.80;;;11.60;;
40367;SDS011;26075;43.320;21.920;2022-10-15T19:42:22;19.42;;;12.35;;
40367;SDS011;26075;43.320;21.920;2022-10-15T19:47:23;18.35;;;9.77;;
40367;SDS011;26075;43.320;21.920;2022-10-15T19:52:24;18.30;;;11.57;;
40367;SDS011;26075;43.320;21.920;2022-10-15T19:57:25;17.90;;;11.38;;
40367;SDS011;26075;43.320;21.920;2022-10-15T20:02:27;21.55;;;10.75;;
40367;SDS011;26075;43.320;21.920;2022-10-15T20:07:28;17.52;;;9.57;;
40367;SDS011;26075;43.320;21.920;2022-10-15T20:12:29;18.92;;;12.40;;
40367;SDS011;26075;43.320;21.920;2022-10-15T20:17:30;19.48;;;12.70;;
40367;SDS011;26075;43.320;21.920;2022-10-15T20:22:31;15.52;;;9.73;;
40367;SDS011;26075;43.320;21.920;2022-10-15T20:27:32;19.00;;;10.85;;
40367;SDS011;26075;43.320;21.920;2022-10-15T20:32:33;19.90;;;10.80;;
40367;SDS011;26075;43.320;21.920;2022-10-15T20:37:35;15.50;;;9.85;;
40367;SDS011;26075;43.320;21.920;2022-10-15T20:42:36;22.70;;;11.32;;
40367;SDS011;26075;43.320;21.920;2022-10-15T20:47:37;19.23;;;11.48;;
40367;SDS011;26075;43.320;21.920;2022-10-15T20:52:40;40.75;;;13.35;;
40367;SDS011;26075;43.320;21.920;2022-10-15T20:57:41;29.67;;;11.82;;
40367;SDS011;26075;43.320;21.920;2022-10-15T21:02:43;26.08;;;12.05;;
40367;SDS011;26075;43.320;21.920;2022-10-15T21:07:44;20.88;;;11.07;;
40367;SDS011;26075;43.320;21.920;2022-10-15T21:12:45;15.45;;;9.82;;
40367;SDS011;26075;43.320;21.920;2022-10-15T21:17:46;15.90;;;9.18;;
40367;SDS011;26075;43.320;21.920;2022-10-15T21:22:47;19.25;;;8.30;;
40367;SDS011;26075;43.320;21.920;2022-10-15T21:27:48;22.80;;;10.88;;
40367;SDS011;26075;43.320;21.920;2022-10-15T21:32:49;17.98;;;12.55;;
40367;SDS011;26075;43.320;21.920;2022-10-15T21:37:50;18.27;;;10.20;;
40367;SDS011;26075;43.320;21.920;2022-10-15T21:42:51;13.85;;;8.65;;
40367;SDS011;26075;43.320;21.920;2022-10-15T21:47:52;12.48;;;8.45;;
40367;SDS011;26075;43.320;21.920;2022-10-15T21:52:53;13.00;;;7.97;;
40367;SDS011;26075;43.320;21.920;2022-10-15T21:57:54;16.52;;;9.23;;
40367;SDS011;26075;43.320;21.920;2022-10-15T22:02:55;16.35;;;9.02;;
40367;SDS011;26075;43.320;21.920;2022-10-15T22:07:56;15.32;;;9.95;;
40367;SDS011;26075;43.320;21.920;2022-10-15T22:12:57;14.75;;;10.30;;
40367;SDS011;26075;43.320;21.920;2022-10-15T22:17:59;15.60;;;9.27;;
40367;SDS011;26075;43.320;21.920;2022-10-15T22:23:00;15.00;;;8.88;;
40367;SDS011;26075;43.320;21.920;2022-10-15T22:28:01;11.52;;;7.63;;
40367;SDS011;26075;43.320;21.920;2022-10-15T22:33:02;20.83;;;7.78;;
40367;SDS011;26075;43.320;21.920;2022-10-15T22:38:03;11.50;;;7.45;;
40367;SDS011;26075;43.320;21.920;2022-10-15T22:43:04;16.17;;;8.68;;
40367;SDS011;26075;43.320;21.920;2022-10-15T22:48:05;11.35;;;7.85;;
40367;SDS011;26075;43.320;21.920;2022-10-15T22:53:06;11.27;;;7.28;;
40367;SDS011;26075;43.320;21.920;2022-10-15T22:58:07;13.85;;;7.32;;
40367;SDS011;26075;43.320;21.920;2022-10-15T23:03:08;8.85;;;6.72;;
40367;SDS011;26075;43.320;21.920;2022-10-15T23:08:09;10.07;;;6.57;;
40367;SDS011;26075;43.320;21.920;2022-10-15T23:13:10;13.40;;;7.20;;
40367;SDS011;26075;43.320;21.920;2022-10-15T23:18:11;11.75;;;7.50;;
40367;SDS011;26075;43.320;21.920;2022-10-15T23:23:12;12.73;;;7.82;;
40367;SDS011;26075;43.320;21.920;2022-10-15T23:28:13;11.02;;;8.23;;
40367;SDS011;26075;43.320;21.920;2022-10-15T23:33:14;12.25;;;8.68;;
40367;SDS011;26075;43.320;21.920;2022-10-15T23:38:15;13.13;;;8.73;;
40367;SDS011;26075;43.320;21.920;2022-10-15T23:43:16;13.20;;;8.13;;
40367;SDS011;26075;43.320;21.920;2022-10-15T23:48:17;15.70;;;8.82;;
40367;SDS011;26075;43.320;21.920;2022-10-15T23:53:19;14.98;;;9.02;;
40367;SDS011;26075;43.320;21.920;2022-10-15T23:58:20;14.07;;;7.35;;
